createdAt,value
2023-02-27T00:01:35.019Z,86.09
2023-02-27T00:04:01.828Z,86.21
2023-02-27T00:06:28.630Z,86.34
2023-02-27T00:08:55.166Z,86.03
2023-02-27T00:11:21.986Z,86.08
2023-02-27T00:13:49.314Z,85.64
2023-02-27T00:16:15.941Z,86.19
2023-02-27T00:18:42.420Z,86.16
2023-02-27T00:21:08.877Z,86.13
2023-02-27T00:23:37.885Z,86.48
2023-02-27T00:26:04.558Z,86.35
2023-02-27T00:28:31.152Z,86.58
2023-02-27T00:30:58.346Z,86.81
2023-02-27T00:33:24.930Z,86.87
2023-02-27T00:36:01.732Z,86.83
2023-02-27T00:38:29.300Z,86.83
2023-02-27T00:40:57.664Z,86.74
2023-02-27T00:43:24.705Z,87.00
2023-02-27T00:45:51.125Z,87.46
2023-02-27T00:48:17.614Z,87.17
2023-02-27T00:50:44.356Z,86.92
2023-02-27T00:53:11.072Z,86.89
2023-02-27T00:55:37.518Z,87.25
2023-02-27T00:58:04.096Z,87.10
2023-02-27T01:00:31.072Z,87.06
2023-02-27T01:02:57.595Z,87.06
2023-02-27T01:05:24.085Z,87.32
2023-02-27T01:07:51.306Z,87.52
2023-02-27T01:10:17.988Z,87.61
2023-02-27T01:12:44.497Z,87.61
2023-02-27T01:15:12.523Z,87.71
2023-02-27T01:17:39.397Z,87.94
2023-02-27T01:20:07.877Z,88.06
2023-02-27T01:22:35.004Z,87.72
2023-02-27T01:25:01.660Z,87.70
2023-02-27T01:27:28.483Z,88.08
2023-02-27T01:29:54.960Z,87.97
2023-02-27T01:32:23.341Z,88.19
2023-02-27T01:34:49.924Z,88.32
2023-02-27T01:37:17.754Z,88.42
2023-02-27T01:39:44.398Z,88.33
2023-02-27T01:42:23.785Z,88.60
2023-02-27T01:45:11.514Z,88.43
2023-02-27T01:47:48.448Z,88.52
2023-02-27T01:50:16.797Z,89.10
2023-02-27T01:52:45.806Z,89.08
2023-02-27T01:55:14.214Z,88.76
2023-02-27T01:57:41.794Z,89.02
2023-02-27T02:00:09.464Z,89.50
2023-02-27T02:02:42.312Z,89.33
2023-02-27T02:05:09.598Z,89.18
2023-02-27T02:07:41.012Z,89.19
2023-02-27T02:10:08.194Z,89.23
2023-02-27T02:12:39.100Z,89.79
2023-02-27T02:15:06.575Z,89.89
2023-02-27T02:17:55.119Z,90.09
2023-02-27T02:20:48.587Z,90.13
2023-02-27T02:23:46.032Z,90.22
2023-02-27T02:26:36.739Z,90.67
2023-02-27T02:29:27.893Z,91.03
2023-02-27T02:32:15.757Z,91.06
2023-02-27T02:34:57.220Z,91.06
2023-02-27T02:37:48.685Z,90.89
2023-02-27T02:40:30.729Z,90.72
2023-02-27T02:43:08.400Z,90.93
2023-02-27T02:46:08.791Z,90.53
2023-02-27T02:48:44.505Z,90.76
2023-02-27T02:51:37.578Z,90.52
2023-02-27T02:54:17.362Z,90.59
2023-02-27T02:56:53.848Z,90.96
2023-02-27T02:59:33.975Z,90.89
2023-02-27T03:02:08.428Z,90.47
2023-02-27T03:04:53.773Z,90.66
2023-02-27T03:08:00.486Z,90.55
2023-02-27T03:10:33.648Z,90.68
2023-02-27T03:13:13.001Z,90.48
2023-02-27T03:15:46.482Z,90.20
2023-02-27T03:18:20.723Z,90.65
2023-02-27T03:20:55.958Z,90.70
2023-02-27T03:23:33.758Z,90.34
2023-02-27T03:26:01.084Z,90.63
2023-02-27T03:28:34.075Z,90.41
2023-02-27T03:31:10.064Z,90.25
2023-02-27T03:33:51.805Z,89.95
2023-02-27T03:36:22.091Z,90.16
2023-02-27T03:38:57.440Z,90.35
2023-02-27T03:41:42.830Z,90.12
2023-02-27T03:44:36.324Z,90.27
2023-02-27T03:47:03.054Z,90.12
2023-02-27T03:49:29.857Z,90.13
2023-02-27T03:51:56.474Z,90.08
2023-02-27T03:54:30.913Z,90.09
2023-02-27T03:57:05.449Z,90.21
2023-02-27T03:59:33.734Z,90.16
2023-02-27T04:02:02.329Z,90.43
2023-02-27T04:04:35.535Z,90.63
2023-02-27T04:07:24.209Z,90.54
2023-02-27T04:10:05.215Z,90.69
2023-02-27T04:13:02.178Z,90.71
2023-02-27T04:15:47.592Z,90.37
2023-02-27T04:18:32.594Z,90.70
2023-02-27T04:21:22.740Z,90.60
2023-02-27T04:24:01.370Z,90.62
2023-02-27T04:26:38.950Z,90.67
2023-02-27T04:29:25.253Z,90.39
2023-02-27T04:31:59.137Z,90.40
2023-02-27T04:34:34.147Z,90.44
2023-02-27T04:37:21.071Z,90.48
2023-02-27T04:39:53.452Z,90.35
2023-02-27T04:42:43.170Z,90.72
2023-02-27T04:45:15.339Z,90.54
2023-02-27T04:47:48.190Z,90.44
2023-02-27T04:50:24.487Z,90.73
2023-02-27T04:52:59.965Z,90.57
2023-02-27T04:55:32.015Z,90.28
2023-02-27T04:58:13.287Z,90.42
2023-02-27T05:00:43.030Z,90.04
2023-02-27T05:03:16.583Z,89.90
2023-02-27T05:05:46.005Z,90.00
2023-02-27T05:08:45.305Z,90.28
2023-02-27T05:11:18.458Z,90.31
2023-02-27T05:13:51.015Z,90.02
2023-02-27T05:16:27.134Z,90.13
2023-02-27T05:18:55.610Z,90.39
2023-02-27T05:21:28.422Z,90.55
2023-02-27T05:24:09.534Z,90.93
2023-02-27T05:26:51.121Z,90.87
2023-02-27T05:29:29.556Z,91.26
2023-02-27T05:32:05.096Z,91.63
2023-02-27T05:34:42.180Z,91.21
2023-02-27T05:37:16.908Z,91.38
2023-02-27T05:39:47.591Z,91.39
2023-02-27T05:42:20.026Z,91.21
2023-02-27T05:44:51.667Z,91.17
2023-02-27T05:47:21.694Z,91.31
2023-02-27T05:50:01.029Z,91.23
2023-02-27T05:52:30.527Z,91.47
2023-02-27T05:55:11.778Z,91.35
2023-02-27T05:57:54.024Z,92.37
2023-02-27T06:00:22.796Z,91.95
2023-02-27T06:02:49.369Z,91.90
2023-02-27T06:05:18.357Z,92.23
2023-02-27T06:07:45.481Z,91.92
2023-02-27T06:10:19.448Z,92.16
2023-02-27T06:12:45.934Z,91.96
2023-02-27T06:15:13.257Z,91.92
2023-02-27T06:17:40.082Z,92.11
2023-02-27T06:20:08.389Z,92.46
2023-02-27T06:22:35.677Z,92.58
2023-02-27T06:25:03.151Z,92.47
2023-02-27T06:27:29.605Z,92.28
2023-02-27T06:29:57.592Z,92.28
2023-02-27T06:32:25.613Z,92.09
2023-02-27T06:34:52.840Z,91.99
2023-02-27T06:37:19.319Z,92.09
2023-02-27T06:39:45.792Z,91.98
2023-02-27T06:42:12.482Z,91.88
2023-02-27T06:44:39.048Z,92.00
2023-02-27T06:47:05.521Z,91.96
2023-02-27T06:49:32.333Z,92.24
2023-02-27T06:51:58.965Z,91.33
2023-02-27T06:54:25.521Z,90.79
2023-02-27T06:56:52.070Z,90.74
2023-02-27T06:59:18.564Z,90.53
2023-02-27T07:01:45.167Z,90.55
2023-02-27T07:04:15.226Z,90.78
2023-02-27T07:07:35.533Z,90.70
2023-02-27T07:09:28.534Z,90.74
2023-02-27T07:11:55.127Z,90.81
2023-02-27T07:14:21.833Z,90.44
2023-02-27T07:16:50.962Z,90.74
2023-02-27T07:19:18.576Z,90.54
2023-02-27T07:21:45.461Z,90.56
2023-02-27T07:24:12.305Z,90.32
2023-02-27T07:26:39.187Z,90.29
2023-02-27T07:29:06.103Z,90.19
2023-02-27T07:31:33.201Z,89.99
2023-02-27T07:33:59.864Z,90.34
2023-02-27T07:36:26.774Z,90.69
2023-02-27T07:38:53.488Z,90.97
2023-02-27T07:41:29.947Z,90.93
2023-02-27T07:43:59.385Z,90.75
2023-02-27T07:46:27.827Z,91.11
2023-02-27T07:48:54.738Z,91.19
2023-02-27T07:51:21.827Z,91.38
2023-02-27T07:53:48.478Z,90.54
2023-02-27T07:56:15.057Z,90.08
2023-02-27T07:58:41.549Z,89.27
2023-02-27T08:01:08.045Z,89.27
2023-02-27T08:03:34.722Z,88.84
2023-02-27T08:06:02.465Z,88.56
2023-02-27T08:08:29.667Z,87.91
2023-02-27T08:10:56.363Z,87.60
2023-02-27T08:13:42.172Z,87.40
2023-02-27T08:16:09.741Z,86.41
2023-02-27T08:18:36.274Z,86.35
2023-02-27T08:21:05.034Z,86.29
2023-02-27T08:23:34.420Z,85.88
2023-02-27T08:26:02.203Z,86.06
2023-02-27T08:28:28.879Z,85.69
2023-02-27T08:30:55.959Z,84.78
2023-02-27T08:33:23.666Z,84.08
2023-02-27T08:35:50.185Z,83.11
2023-02-27T08:38:16.772Z,82.72
2023-02-27T08:40:43.237Z,83.42
2023-02-27T08:43:09.739Z,82.74
2023-02-27T08:45:36.286Z,82.72
2023-02-27T08:48:03.174Z,81.99
2023-02-27T08:50:29.724Z,82.17
2023-02-27T08:52:56.362Z,81.77
2023-02-27T08:55:22.825Z,81.25
2023-02-27T08:57:49.339Z,80.86
2023-02-27T09:00:16.519Z,80.96
2023-02-27T09:02:43.108Z,80.81
2023-02-27T09:05:09.690Z,80.32
2023-02-27T09:07:36.242Z,80.88
2023-02-27T09:10:03.081Z,80.97
2023-02-27T09:12:29.605Z,80.34
2023-02-27T09:14:56.166Z,80.63
2023-02-27T09:17:22.631Z,80.69
2023-02-27T09:19:51.280Z,80.71
2023-02-27T09:22:18.962Z,80.43
2023-02-27T09:24:45.794Z,80.06
2023-02-27T09:27:12.230Z,79.81
2023-02-27T09:29:38.759Z,79.63
2023-02-27T09:32:05.375Z,79.97
2023-02-27T09:34:31.980Z,79.78
2023-02-27T09:36:59.904Z,79.05
2023-02-27T09:39:26.630Z,79.26
2023-02-27T09:42:03.724Z,80.17
2023-02-27T09:44:47.506Z,80.38
2023-02-27T09:47:19.902Z,80.36
2023-02-27T09:49:59.155Z,80.94
2023-02-27T09:52:26.925Z,81.46
2023-02-27T09:54:55.179Z,81.85
2023-02-27T09:57:51.926Z,81.57
2023-02-27T10:00:37.210Z,82.27
2023-02-27T10:03:43.396Z,81.47
2023-02-27T10:06:19.147Z,81.10
2023-02-27T10:09:05.563Z,80.82
2023-02-27T10:11:52.571Z,80.82
2023-02-27T10:14:29.458Z,80.56
2023-02-27T10:16:58.133Z,80.63
2023-02-27T10:19:31.382Z,80.73
2023-02-27T10:22:00.999Z,80.13
2023-02-27T10:24:33.060Z,80.32
2023-02-27T10:27:05.619Z,80.79
2023-02-27T10:29:42.464Z,79.06
2023-02-27T10:32:18.445Z,77.88
2023-02-27T10:34:51.574Z,77.81
2023-02-27T10:37:22.265Z,76.77
2023-02-27T10:39:54.813Z,77.14
2023-02-27T10:42:24.314Z,76.00
2023-02-27T10:44:53.836Z,76.67
2023-02-27T10:47:25.061Z,75.49
2023-02-27T10:49:53.143Z,74.52
2023-02-27T10:52:20.061Z,74.11
2023-02-27T10:54:47.121Z,74.42
2023-02-27T10:57:26.245Z,75.08
2023-02-27T11:00:05.496Z,74.06
2023-02-27T11:02:40.516Z,72.90
2023-02-27T11:05:18.252Z,71.61
2023-02-27T11:07:45.402Z,69.44
2023-02-27T11:10:12.280Z,69.79
2023-02-27T11:12:40.405Z,71.29
2023-02-27T11:15:28.474Z,70.31
2023-02-27T11:17:55.100Z,71.00
2023-02-27T11:20:40.515Z,69.44
2023-02-27T11:23:15.567Z,68.94
2023-02-27T11:25:42.580Z,68.74
2023-02-27T11:28:21.482Z,69.30
2023-02-27T11:31:04.269Z,67.63
2023-02-27T11:33:39.221Z,67.96
2023-02-27T11:36:06.480Z,67.67
2023-02-27T11:38:34.757Z,68.10
2023-02-27T11:41:04.644Z,67.67
2023-02-27T11:43:46.601Z,68.08
2023-02-27T11:46:44.499Z,67.77
2023-02-27T11:49:18.101Z,68.49
2023-02-27T11:52:09.933Z,68.73
2023-02-27T11:54:49.274Z,68.55
2023-02-27T11:57:28.374Z,69.81
2023-02-27T12:00:30.594Z,69.09
2023-02-27T12:03:14.333Z,68.90
2023-02-27T12:05:45.789Z,67.31
2023-02-27T12:08:29.594Z,67.21
2023-02-27T12:11:15.004Z,66.23
2023-02-27T12:13:47.289Z,64.56
2023-02-27T12:16:40.137Z,65.15
2023-02-27T12:19:18.317Z,64.44
2023-02-27T12:21:49.959Z,64.46
2023-02-27T12:24:58.804Z,63.10
2023-02-27T12:27:33.547Z,62.59
2023-02-27T12:30:16.074Z,62.66
2023-02-27T12:33:01.704Z,62.45
2023-02-27T12:35:33.040Z,62.84
2023-02-27T12:38:00.828Z,61.11
2023-02-27T12:40:46.002Z,61.95
2023-02-27T12:43:15.367Z,60.54
2023-02-27T12:46:07.607Z,61.82
2023-02-27T12:48:50.943Z,61.68
2023-02-27T12:51:31.646Z,61.08
2023-02-27T12:54:17.653Z,61.24
2023-02-27T12:56:46.807Z,61.75
2023-02-27T12:59:29.356Z,61.18
2023-02-27T13:02:16.826Z,60.98
2023-02-27T13:04:56.579Z,60.92
2023-02-27T13:07:47.532Z,60.27
2023-02-27T13:10:34.308Z,59.14
2023-02-27T13:13:10.363Z,59.74
2023-02-27T13:15:44.843Z,59.15
2023-02-27T13:18:39.422Z,58.97
2023-02-27T13:21:19.143Z,60.01
2023-02-27T13:23:55.629Z,60.35
2023-02-27T13:26:32.660Z,59.93
2023-02-27T13:29:00.899Z,58.94
2023-02-27T13:31:55.458Z,58.40
2023-02-27T13:34:30.869Z,58.19
2023-02-27T13:37:03.340Z,58.18
2023-02-27T13:39:40.911Z,57.83
2023-02-27T13:42:25.714Z,58.74
2023-02-27T13:45:00.716Z,58.66
2023-02-27T13:47:30.519Z,59.13
2023-02-27T13:50:04.186Z,59.11
2023-02-27T13:52:36.424Z,58.37
2023-02-27T13:55:12.128Z,57.35
2023-02-27T13:57:39.180Z,58.19
2023-02-27T14:00:25.690Z,58.08
2023-02-27T14:03:00.332Z,57.63
2023-02-27T14:05:32.854Z,56.59
2023-02-27T14:08:06.546Z,56.74
2023-02-27T14:10:33.930Z,56.27
2023-02-27T14:13:03.528Z,56.17
2023-02-27T14:15:34.470Z,56.21
2023-02-27T14:18:15.657Z,55.95
2023-02-27T14:20:44.358Z,55.85
2023-02-27T14:23:26.717Z,55.98
2023-02-27T14:25:56.464Z,56.39
2023-02-27T14:28:30.409Z,55.67
2023-02-27T14:31:31.012Z,56.36
2023-02-27T14:34:05.202Z,57.26
2023-02-27T14:36:42.608Z,56.06
2023-02-27T14:39:20.757Z,56.58
2023-02-27T14:42:13.603Z,56.32
2023-02-27T14:44:43.697Z,56.53
2023-02-27T14:47:18.112Z,56.23
2023-02-27T14:49:47.352Z,55.77
2023-02-27T14:52:18.472Z,55.79
2023-02-27T14:54:45.389Z,55.26
2023-02-27T14:57:26.821Z,54.46
2023-02-27T14:59:54.471Z,54.65
2023-02-27T15:02:33.492Z,55.68
2023-02-27T15:05:02.753Z,56.18
2023-02-27T15:07:32.323Z,56.21
2023-02-27T15:10:08.263Z,56.20
2023-02-27T15:12:39.990Z,56.18
2023-02-27T15:15:09.045Z,56.28
2023-02-27T15:17:41.292Z,56.66
2023-02-27T15:20:30.129Z,57.77
2023-02-27T15:23:01.945Z,57.81
2023-02-27T15:25:39.870Z,58.10
2023-02-27T15:28:20.448Z,57.97
2023-02-27T15:30:52.697Z,58.16
2023-02-27T15:33:25.496Z,58.46
2023-02-27T15:35:52.237Z,57.96
2023-02-27T15:38:28.193Z,57.89
2023-02-27T15:40:56.295Z,58.37
2023-02-27T15:43:24.555Z,58.54
2023-02-27T15:45:52.697Z,58.60
2023-02-27T15:48:20.468Z,58.41
2023-02-27T15:50:56.718Z,59.09
2023-02-27T15:53:28.595Z,59.17
2023-02-27T15:55:58.498Z,58.53
2023-02-27T15:58:30.890Z,59.10
2023-02-27T16:01:13.021Z,59.55
2023-02-27T16:03:45.545Z,59.88
2023-02-27T16:06:19.526Z,60.50
2023-02-27T16:08:51.260Z,60.50
2023-02-27T16:11:22.578Z,60.74
2023-02-27T16:13:49.704Z,60.53
2023-02-27T16:16:32.567Z,59.87
2023-02-27T16:19:02.624Z,60.83
2023-02-27T16:21:33.565Z,60.21
2023-02-27T16:24:21.803Z,60.88
2023-02-27T16:26:52.998Z,60.55
2023-02-27T16:29:22.564Z,60.13
2023-02-27T16:31:52.949Z,60.74
2023-02-27T16:34:44.613Z,60.49
2023-02-27T16:37:22.608Z,60.19
2023-02-27T16:39:51.750Z,60.64
2023-02-27T16:42:18.391Z,60.39
2023-02-27T16:44:44.941Z,59.99
2023-02-27T16:47:11.427Z,60.37
2023-02-27T16:49:39.049Z,60.05
2023-02-27T16:52:07.306Z,59.80
2023-02-27T16:54:35.215Z,60.43
2023-02-27T16:57:01.641Z,60.44
2023-02-27T16:59:35.063Z,59.90
2023-02-27T17:02:07.329Z,59.77
2023-02-27T17:04:33.988Z,60.29
2023-02-27T17:07:01.674Z,60.15
2023-02-27T17:09:29.199Z,59.77
2023-02-27T17:11:56.840Z,60.10
2023-02-27T17:14:24.479Z,59.83
2023-02-27T17:16:51.058Z,60.32
2023-02-27T17:19:17.695Z,60.59
2023-02-27T17:21:44.224Z,60.19
2023-02-27T17:24:10.761Z,59.86
2023-02-27T17:26:37.339Z,60.07
2023-02-27T17:29:05.178Z,60.41
2023-02-27T17:31:32.055Z,61.28
2023-02-27T17:33:58.705Z,60.67
2023-02-27T17:36:26.284Z,60.90
2023-02-27T17:38:57.833Z,61.49
2023-02-27T17:41:24.843Z,61.08
2023-02-27T17:43:53.842Z,61.80
2023-02-27T17:46:20.393Z,62.29
2023-02-27T17:48:47.070Z,62.38
2023-02-27T17:51:15.822Z,62.11
2023-02-27T17:53:42.832Z,62.45
2023-02-27T17:56:10.417Z,62.96
2023-02-27T17:58:37.125Z,62.42
2023-02-27T18:01:05.772Z,62.85
2023-02-27T18:03:32.642Z,62.79
2023-02-27T18:05:59.298Z,63.27
2023-02-27T18:08:25.951Z,63.07
2023-02-27T18:10:53.091Z,63.97
2023-02-27T18:13:21.701Z,64.01
2023-02-27T18:15:50.033Z,63.96
2023-02-27T18:18:16.625Z,64.71
2023-02-27T18:20:43.430Z,64.27
2023-02-27T18:23:10.376Z,63.63
2023-02-27T18:25:37.659Z,64.08
2023-02-27T18:28:05.648Z,64.46
2023-02-27T18:30:36.049Z,64.13
2023-02-27T18:33:02.611Z,65.07
2023-02-27T18:35:29.173Z,65.49
2023-02-27T18:37:55.633Z,65.85
2023-02-27T18:40:24.903Z,65.92
2023-02-27T18:42:54.517Z,66.49
2023-02-27T18:45:21.446Z,65.94
2023-02-27T18:47:48.064Z,66.20
2023-02-27T18:50:14.618Z,66.33
2023-02-27T18:52:41.181Z,66.06
2023-02-27T18:55:08.494Z,66.67
2023-02-27T18:57:34.994Z,66.72
2023-02-27T19:00:01.682Z,66.72
2023-02-27T19:02:28.276Z,66.56
2023-02-27T19:04:54.809Z,66.78
2023-02-27T19:07:23.262Z,66.95
2023-02-27T19:09:49.760Z,67.32
2023-02-27T19:12:17.360Z,67.62
2023-02-27T19:14:43.882Z,67.49
2023-02-27T19:17:10.406Z,67.96
2023-02-27T19:19:37.415Z,67.86
2023-02-27T19:22:04.027Z,68.32
2023-02-27T19:24:30.626Z,68.28
2023-02-27T19:26:57.062Z,67.92
2023-02-27T19:29:23.499Z,68.00
2023-02-27T19:31:50.527Z,68.45
2023-02-27T19:34:17.249Z,68.23
2023-02-27T19:36:43.794Z,69.02
2023-02-27T19:39:11.277Z,68.69
2023-02-27T19:41:39.120Z,69.15
2023-02-27T19:44:05.761Z,68.86
2023-02-27T19:46:34.106Z,69.10
2023-02-27T19:49:04.281Z,68.78
2023-02-27T19:51:31.568Z,69.57
2023-02-27T19:53:58.177Z,69.23
2023-02-27T19:56:27.091Z,69.99
2023-02-27T19:58:54.258Z,70.62
2023-02-27T20:01:29.025Z,70.61
2023-02-27T20:03:56.018Z,70.70
2023-02-27T20:06:24.827Z,70.66
2023-02-27T20:08:52.816Z,70.45
2023-02-27T20:11:20.933Z,70.69
2023-02-27T20:13:49.149Z,71.29
2023-02-27T20:16:22.273Z,71.90
2023-02-27T20:18:49.026Z,71.52
2023-02-27T20:21:23.609Z,71.47
2023-02-27T20:23:51.741Z,71.74
2023-02-27T20:26:31.600Z,72.14
2023-02-27T20:29:00.853Z,72.04
2023-02-27T20:31:30.542Z,72.59
2023-02-27T20:33:57.907Z,72.91
2023-02-27T20:36:24.588Z,73.23
2023-02-27T20:38:51.118Z,73.28
2023-02-27T20:41:20.387Z,73.06
2023-02-27T20:43:46.890Z,73.83
2023-02-27T20:46:20.427Z,73.25
2023-02-27T20:48:47.326Z,72.83
2023-02-27T20:51:21.779Z,73.01
2023-02-27T20:53:51.080Z,72.48
2023-02-27T20:56:23.613Z,72.83
2023-02-27T20:58:50.622Z,72.56
2023-02-27T21:01:17.811Z,72.53
2023-02-27T21:03:46.732Z,72.43
2023-02-27T21:06:15.432Z,72.65
2023-02-27T21:08:47.884Z,72.76
2023-02-27T21:11:17.604Z,73.21
2023-02-27T21:13:45.987Z,73.05
2023-02-27T21:16:14.938Z,73.23
2023-02-27T21:18:41.683Z,73.89
2023-02-27T21:21:30.405Z,74.24
2023-02-27T21:23:57.783Z,74.57
2023-02-27T21:26:35.221Z,75.00
2023-02-27T21:29:08.262Z,75.07
2023-02-27T21:31:35.992Z,75.37
2023-02-27T21:34:06.814Z,75.60
2023-02-27T21:36:36.719Z,75.74
2023-02-27T21:39:06.157Z,76.00
2023-02-27T21:41:33.709Z,76.08
2023-02-27T21:44:02.649Z,75.91
2023-02-27T21:46:29.434Z,75.71
2023-02-27T21:48:56.522Z,75.82
2023-02-27T21:51:38.249Z,75.63
2023-02-27T21:54:05.902Z,75.01
2023-02-27T21:56:32.597Z,75.32
2023-02-27T21:59:01.816Z,75.43
2023-02-27T22:01:29.126Z,75.49
2023-02-27T22:03:56.300Z,75.97
2023-02-27T22:06:25.228Z,76.33
2023-02-27T22:08:56.732Z,76.50
2023-02-27T22:11:25.340Z,76.10
2023-02-27T22:13:52.224Z,76.02
2023-02-27T22:16:19.339Z,75.20
2023-02-27T22:18:46.878Z,75.10
2023-02-27T22:21:17.252Z,75.12
2023-02-27T22:23:45.265Z,74.78
2023-02-27T22:26:14.304Z,75.25
2023-02-27T22:28:41.578Z,75.64
2023-02-27T22:31:18.792Z,75.79
2023-02-27T22:33:48.613Z,76.30
2023-02-27T22:36:18.759Z,76.05
2023-02-27T22:38:45.711Z,76.51
2023-02-27T22:41:14.945Z,76.40
2023-02-27T22:43:44.562Z,76.21
2023-02-27T22:46:16.337Z,75.88
2023-02-27T22:48:43.772Z,75.67
2023-02-27T22:51:14.393Z,75.58
2023-02-27T22:53:42.967Z,75.73
2023-02-27T22:56:12.159Z,75.89
2023-02-27T22:58:40.089Z,76.22
2023-02-27T23:01:09.352Z,76.35
2023-02-27T23:03:36.653Z,76.62
2023-02-27T23:06:04.088Z,76.88
2023-02-27T23:08:30.666Z,77.30
2023-02-27T23:10:57.488Z,77.60
2023-02-27T23:13:24.453Z,78.51
2023-02-27T23:15:51.026Z,78.74
2023-02-27T23:18:17.476Z,79.38
2023-02-27T23:20:43.949Z,79.72
2023-02-27T23:23:10.576Z,80.02
2023-02-27T23:25:37.910Z,80.55
2023-02-27T23:28:05.528Z,80.70
2023-02-27T23:30:32.915Z,81.02
2023-02-27T23:32:59.751Z,81.08
2023-02-27T23:35:27.102Z,80.94
2023-02-27T23:37:56.107Z,81.63
2023-02-27T23:40:25.418Z,81.87
2023-02-27T23:42:52.216Z,81.69
2023-02-27T23:45:24.872Z,81.71
2023-02-27T23:47:56.436Z,82.26
2023-02-27T23:50:29.544Z,81.89
2023-02-27T23:52:58.903Z,81.89
2023-02-27T23:55:28.644Z,82.14
2023-02-27T23:57:56.982Z,82.05
